Classifiche di sempre
Migliori tempi personali validi di team tra tutti gli eventi e le stagioni. Ogni team compare una sola volta per divisione.
Cerca per nome e apri la pagina in cui è classificato questo record di divisione.
133,012 team in classifica
| Pos. | Pos. AG | Team | Nazionalità | Categoria età | TempoMiglior tempo | Distacco |
|---|---|---|---|---|---|---|
| 126876 | -- | Maxence Moranvillier & Inès RagainFRA · X XU29 | FRA | X XU29 | 1:53:33 | +64:20 |
| 126877 | -- | Ysaline Noel & Laurent BouvryBEL · X XU29 | BEL | X XU29 | 1:53:33 | +64:20 |
| 126878 | #17033 | Simon GIBBONS & Kiran GIBBONSGBR · X 40-44 · AG #17033 | GBR | X 40-44 | 1:53:33 | +64:20 |
| 126879 | -- | Elven Paris & Andréa SalattiFRA · X XU29 | FRA | X XU29 | 1:53:33 | +64:20 |
| 126880 | -- | Mélanie Domingues & Andy VainqueurX | -- | -- | 1:53:33 | +64:20 |
| 126881 | #17034 | Sophie Frair & Yannick FrairFRA · X 40-44 · AG #17034 | FRA | X 40-44 | 1:53:33 | +64:20 |
| 126882 | #4211 | Jessica Montañez & Carlos SuarezMEX · X 45-49 · AG #4211 | MEX | X 45-49 | 1:53:33 | +64:20 |
| 126883 | #44598 | Sergio Delgadillo & Paulina FernandezMEX · X 30-34 · AG #44598 | MEX | X 30-34 | 1:53:33 | +64:20 |
| 126884 | #19355 | Bradley Dube & Nolwazi NgubaneRSA · X 25-29 · AG #19355 | RSA | X 25-29 | 1:53:34 | +64:21 |
| 126885 | #15605 | Kurtis Chen & Vikki NguyenUSA · X 35-39 · AG #15605 | USA | X 35-39 | 1:53:34 | +64:21 |
| 126886 | #19356 | Erin Leong & Eli ChongSIN · X 25-29 · AG #19356 | SIN | X 25-29 | 1:53:34 | +64:21 |
| 126887 | #44601 | 迪 李 & 镠 陈CHN · X 30-34 · AG #44601 | CHN | X 30-34 | 1:53:34 | +64:21 |
| 126888 | #44599 | Peicheng Zeng & Meca SalvadorX 30-34 · AG #44599 | -- | X 30-34 | 1:53:34 | +64:21 |
| 126889 | #17035 | Manuel Rifo & Nathali GonalvesESP · X 40-44 · AG #17035 | ESP | X 40-44 | 1:53:34 | +64:21 |
| 126890 | #44600 | Brandon Garcia & Brittney GarciaUSA · X 30-34 · AG #44600 | USA | X 30-34 | 1:53:34 | +64:21 |
| 126891 | #44602 | Lauren McGonnagle & Dylan MaddenGBR · X 30-34 · AG #44602 | GBR | X 30-34 | 1:53:34 | +64:21 |
| 126892 | #8645 | Eileen Min & Roberto OrtizX 16-24 · AG #8645 | -- | X 16-24 | 1:53:34 | +64:21 |
| 126893 | #8646 | Abigail Nathalie & Billy HolmesGBR · X 16-24 · AG #8646 | GBR | X 16-24 | 1:53:34 | +64:21 |
| 126894 | #8647 | Ferão Da Gama & Caitlyn Da GamaRSA · X 16-24 · AG #8647 | RSA | X 16-24 | 1:53:34 | +64:21 |
| 126895 | #19357 | Erastus Twang & Alysia YeoSIN · X 25-29 · AG #19357 | SIN | X 25-29 | 1:53:34 | +64:21 |
| 126896 | #17036 | Stefanie Robbe & Mario RobbeGER · X 40-44 · AG #17036 | GER | X 40-44 | 1:53:34 | +64:21 |
| 126897 | #19358 | Oliver Dolman & Philippa MunroGBR · X 25-29 · AG #19358 | GBR | X 25-29 | 1:53:35 | +64:22 |
| 126898 | #8648 | Fabián Caballero & Myriam GarcíaMEX · X 16-24 · AG #8648 | MEX | X 16-24 | 1:53:35 | +64:22 |
| 126899 | #17037 | Mark Flanagan & Kate FlanaganGBR · X 40-44 · AG #17037 | GBR | X 40-44 | 1:53:35 | +64:22 |
| 126900 | #4212 | Kristen Kiernander & Daniel NauthCAN · X 45-49 · AG #4212 | CAN | X 45-49 | 1:53:35 | +64:22 |
Pagina 5,076 di 5,321